PWSweather.com
Personal Weather Stations
Station Observations
BETACDT
Kansas City, MT

Kansas City, MT

Lat: 39.287, Lon: -94.447

Elevation: 961

Station Type:

High Low Average
Temperature 80.8°F27.1°C 60.1°F15.6°C 69.0°F20.6°C
Dew Point 77.7°F25.4°C 59.8°F15.4°C 67.7°F19.8°C
Winds 21.0 mph 33.8 kmh Calm Calm 5.0 mph S8.0 kmh S
Wind Gusts -- -- --
Humidity 99% 90% 96%
Pressure 30.11 in1019.6 mb 29.89 in1012.2 mb -
Precipitation 2.45 in62.2 mm - -
Hour Temp Dew Point Humidity Winds Wind Gusts Pressure Precip Precip Rate Daily Precip Total
12:03 AM 75.2°F24.0°C 73.7°F23.2°C 95% 3.0 mph ESE4.8 kmh ESE -- 29.98 in1015.2 mb 0.00 in0.0 mm 0.00 in0.0 mm 0.00 in0.0 mm
12:08 AM 75.2°F24.0°C 73.7°F23.2°C 95% 3.0 mph NNW4.8 kmh NNW -- 29.98 in1015.2 mb 0.00 in0.0 mm 0.00 in0.0 mm 0.00 in0.0 mm
12:13 AM 75.2°F24.0°C 73.7°F23.2°C 95% 2.0 mph SW3.2 kmh SW -- 29.98 in1015.2 mb 0.00 in0.0 mm 0.00 in0.0 mm 0.00 in0.0 mm
12:18 AM 75.2°F24.0°C 73.7°F23.2°C 95% 4.0 mph WNW6.4 kmh WNW -- 29.97 in1014.9 mb 0.00 in0.0 mm 0.00 in0.0 mm 0.00 in0.0 mm
12:23 AM 75.4°F24.1°C 73.5°F23.1°C 94% 4.0 mph ESE6.4 kmh ESE -- 29.97 in1014.9 mb 0.00 in0.0 mm 0.00 in0.0 mm 0.00 in0.0 mm
12:28 AM 75.4°F24.1°C 73.5°F23.1°C 94% 4.0 mph E6.4 kmh E -- 29.97 in1014.9 mb 0.00 in0.0 mm 0.00 in0.0 mm 0.00 in0.0 mm
12:33 AM 75.2°F24.0°C 73.3°F22.9°C 94% 3.0 mph WSW4.8 kmh WSW -- 29.97 in1014.9 mb 0.00 in0.0 mm 0.00 in0.0 mm 0.00 in0.0 mm
12:38 AM 75.2°F24.0°C 73.3°F22.9°C 94% 3.0 mph SSE4.8 kmh SSE -- 29.97 in1014.9 mb 0.00 in0.0 mm 0.00 in0.0 mm 0.00 in0.0 mm
12:43 AM 75.4°F24.1°C 73.5°F23.1°C 94% 4.0 mph S6.4 kmh S -- 29.96 in1014.6 mb 0.00 in0.0 mm 0.00 in0.0 mm 0.00 in0.0 mm
12:48 AM 75.4°F24.1°C 73.5°F23.1°C 94% 3.0 mph ESE4.8 kmh ESE -- 29.96 in1014.6 mb 0.00 in0.0 mm 0.00 in0.0 mm 0.00 in0.0 mm
12:53 AM 75.4°F24.1°C 73.5°F23.1°C 94% 5.0 mph S8.0 kmh S -- 29.96 in1014.6 mb 0.00 in0.0 mm 0.00 in0.0 mm 0.00 in0.0 mm
12:58 AM 75.4°F24.1°C 73.5°F23.1°C 94% 3.0 mph ESE4.8 kmh ESE -- 29.96 in1014.6 mb 0.00 in0.0 mm 0.00 in0.0 mm 0.00 in0.0 mm
01:03 AM 75.4°F24.1°C 73.2°F22.9°C 93% 3.0 mph SW4.8 kmh SW -- 29.96 in1014.6 mb 0.00 in0.0 mm 0.00 in0.0 mm 0.00 in0.0 mm
01:08 AM 75.4°F24.1°C 73.2°F22.9°C 93% 4.0 mph W6.4 kmh W -- 29.96 in1014.6 mb 0.00 in0.0 mm 0.00 in0.0 mm 0.00 in0.0 mm
01:13 AM 75.4°F24.1°C 73.2°F22.9°C 93% 5.0 mph SSW8.0 kmh SSW -- 29.96 in1014.6 mb 0.00 in0.0 mm 0.00 in0.0 mm 0.00 in0.0 mm
01:18 AM 75.6°F24.2°C 73.4°F23.0°C 93% 4.0 mph S6.4 kmh S -- 29.96 in1014.6 mb 0.00 in0.0 mm 0.00 in0.0 mm 0.00 in0.0 mm
01:23 AM 75.6°F24.2°C 73.4°F23.0°C 93% 4.0 mph W6.4 kmh W -- 29.96 in1014.6 mb 0.00 in0.0 mm 0.00 in0.0 mm 0.00 in0.0 mm
01:28 AM 75.6°F24.2°C 73.4°F23.0°C 93% 3.0 mph W4.8 kmh W -- 29.96 in1014.6 mb 0.00 in0.0 mm 0.00 in0.0 mm 0.00 in0.0 mm
01:33 AM 75.7°F24.3°C 73.5°F23.1°C 93% 3.0 mph NNE4.8 kmh NNE -- 29.96 in1014.6 mb 0.00 in0.0 mm 0.00 in0.0 mm 0.00 in0.0 mm
01:38 AM 75.7°F24.3°C 73.5°F23.1°C 93% 5.0 mph S8.0 kmh S -- 29.96 in1014.6 mb 0.00 in0.0 mm 0.00 in0.0 mm 0.00 in0.0 mm
01:43 AM 75.7°F24.3°C 73.5°F23.1°C 93% 5.0 mph ESE8.0 kmh ESE -- 29.96 in1014.6 mb 0.00 in0.0 mm 0.00 in0.0 mm 0.00 in0.0 mm
01:48 AM 75.7°F24.3°C 73.5°F23.1°C 93% 8.0 mph ESE12.9 kmh ESE -- 29.96 in1014.6 mb 0.00 in0.0 mm 0.00 in0.0 mm 0.00 in0.0 mm
01:53 AM 75.7°F24.3°C 73.5°F23.1°C 93% 5.0 mph SSE8.0 kmh SSE -- 29.96 in1014.6 mb 0.00 in0.0 mm 0.00 in0.0 mm 0.00 in0.0 mm
01:58 AM 75.7°F24.3°C 73.5°F23.1°C 93% 4.0 mph SSW6.4 kmh SSW -- 29.96 in1014.6 mb 0.00 in0.0 mm 0.00 in0.0 mm 0.00 in0.0 mm
02:03 AM 75.7°F24.3°C 73.5°F23.1°C 93% 5.0 mph SW8.0 kmh SW -- 29.95 in1014.2 mb 0.00 in0.0 mm 0.00 in0.0 mm 0.00 in0.0 mm
02:08 AM 75.7°F24.3°C 73.5°F23.1°C 93% 4.0 mph S6.4 kmh S -- 29.96 in1014.6 mb 0.00 in0.0 mm 0.00 in0.0 mm 0.00 in0.0 mm
02:13 AM 75.6°F24.2°C 73.4°F23.0°C 93% 3.0 mph 4.8 kmh -- 29.95 in1014.2 mb 0.00 in0.0 mm 0.00 in0.0 mm 0.00 in0.0 mm
02:18 AM 75.6°F24.2°C 73.4°F23.0°C 93% 4.0 mph NNE6.4 kmh NNE -- 29.95 in1014.2 mb 0.00 in0.0 mm 0.00 in0.0 mm 0.00 in0.0 mm
02:23 AM 75.6°F24.2°C 73.4°F23.0°C 93% 6.0 mph SW9.7 kmh SW -- 29.95 in1014.2 mb 0.00 in0.0 mm 0.00 in0.0 mm 0.00 in0.0 mm
02:28 AM 75.6°F24.2°C 73.4°F23.0°C 93% 2.0 mph W3.2 kmh W -- 29.95 in1014.2 mb 0.00 in0.0 mm 0.00 in0.0 mm 0.00 in0.0 mm
02:33 AM 75.4°F24.1°C 73.2°F22.9°C 93% 5.0 mph ESE8.0 kmh ESE -- 29.95 in1014.2 mb 0.00 in0.0 mm 0.00 in0.0 mm 0.00 in0.0 mm
02:38 AM 75.4°F24.1°C 73.2°F22.9°C 93% 3.0 mph SW4.8 kmh SW -- 29.94 in1013.9 mb 0.00 in0.0 mm 0.00 in0.0 mm 0.00 in0.0 mm
02:43 AM 75.2°F24.0°C 73.0°F22.8°C 93% 4.0 mph SE6.4 kmh SE -- 29.94 in1013.9 mb 0.00 in0.0 mm 0.00 in0.0 mm 0.00 in0.0 mm
02:48 AM 75.2°F24.0°C 73.0°F22.8°C 93% 8.0 mph SSW12.9 kmh SSW -- 29.94 in1013.9 mb 0.00 in0.0 mm 0.00 in0.0 mm 0.00 in0.0 mm
02:53 AM 75.2°F24.0°C 73.0°F22.8°C 93% 4.0 mph E6.4 kmh E -- 29.94 in1013.9 mb 0.00 in0.0 mm 0.00 in0.0 mm 0.00 in0.0 mm
02:58 AM 75.2°F24.0°C 73.0°F22.8°C 93% 5.0 mph ESE8.0 kmh ESE -- 29.94 in1013.9 mb 0.00 in0.0 mm 0.00 in0.0 mm 0.00 in0.0 mm
03:03 AM 75.2°F24.0°C 73.0°F22.8°C 93% 7.0 mph SSE11.3 kmh SSE -- 29.94 in1013.9 mb 0.00 in0.0 mm 0.00 in0.0 mm 0.00 in0.0 mm
03:08 AM 75.2°F24.0°C 73.0°F22.8°C 93% 8.0 mph WSW12.9 kmh WSW -- 29.96 in1014.6 mb 0.00 in0.0 mm 0.00 in0.0 mm 0.00 in0.0 mm
03:13 AM 74.5°F23.6°C 72.3°F22.4°C 93% 18.0 mph SSW29.0 kmh SSW -- 29.97 in1014.9 mb 0.00 in0.0 mm 0.00 in0.0 mm 0.00 in0.0 mm
03:18 AM 71.8°F22.1°C 70.0°F21.1°C 94% 21.0 mph W33.8 kmh W -- 29.99 in1015.6 mb 0.00 in0.0 mm 0.00 in0.0 mm 0.00 in0.0 mm
03:23 AM 68.9°F20.5°C 67.4°F19.7°C 95% 17.0 mph W27.4 kmh W -- 29.99 in1015.6 mb 0.00 in0.0 mm 0.00 in0.0 mm 0.00 in0.0 mm
03:28 AM 67.6°F19.8°C 66.1°F18.9°C 95% 20.0 mph W32.2 kmh W -- 29.99 in1015.6 mb 0.00 in0.0 mm 0.00 in0.0 mm 0.00 in0.0 mm
03:33 AM 66.4°F19.1°C 64.9°F18.3°C 95% 14.0 mph W22.5 kmh W -- 30.00 in1015.9 mb 0.00 in0.0 mm 0.00 in0.0 mm 0.00 in0.0 mm
03:38 AM 65.5°F18.6°C 64.3°F17.9°C 96% 11.0 mph W17.7 kmh W -- 30.00 in1015.9 mb 0.03 in0.8 mm 0.36 in9.1 mm 0.03 in0.8 mm
03:43 AM 65.1°F18.4°C 64.2°F17.9°C 97% 12.0 mph W19.3 kmh W -- 30.01 in1016.3 mb 0.04 in1.0 mm 0.12 in3.0 mm 0.04 in1.0 mm
03:48 AM 64.9°F18.3°C 64.0°F17.8°C 97% 7.0 mph W11.3 kmh W -- 30.01 in1016.3 mb 0.07 in1.8 mm 0.36 in9.1 mm 0.07 in1.8 mm
03:53 AM 64.9°F18.3°C 64.0°F17.8°C 97% 6.0 mph ENE9.7 kmh ENE -- 30.01 in1016.3 mb 0.10 in2.5 mm 0.36 in9.1 mm 0.10 in2.5 mm
03:58 AM 64.9°F18.3°C 64.3°F17.9°C 98% 8.0 mph NNE12.9 kmh NNE -- 30.00 in1015.9 mb 0.13 in3.3 mm 0.36 in9.1 mm 0.13 in3.3 mm
04:03 AM 64.9°F18.3°C 64.3°F17.9°C 98% 7.0 mph NE11.3 kmh NE -- 29.99 in1015.6 mb 0.15 in3.8 mm 0.02 in0.5 mm 0.15 in3.8 mm
04:08 AM 64.8°F18.2°C 64.2°F17.9°C 98% 5.0 mph NNW8.0 kmh NNW -- 29.99 in1015.6 mb 0.19 in4.8 mm 0.48 in12.2 mm 0.19 in4.8 mm
04:13 AM 64.8°F18.2°C 64.2°F17.9°C 98% 5.0 mph ENE8.0 kmh ENE -- 29.98 in1015.2 mb 0.21 in5.3 mm 0.24 in6.1 mm 0.21 in5.3 mm
04:18 AM 64.8°F18.2°C 64.2°F17.9°C 98% 6.0 mph ESE9.7 kmh ESE -- 29.99 in1015.6 mb 0.23 in5.8 mm 0.24 in6.1 mm 0.23 in5.8 mm
04:23 AM 64.6°F18.1°C 64.0°F17.8°C 98% 5.0 mph 8.0 kmh -- 29.99 in1015.6 mb 0.33 in8.4 mm 1.20 in30.5 mm 0.33 in8.4 mm
04:28 AM 64.4°F18.0°C 63.8°F17.7°C 98% 5.0 mph ENE8.0 kmh ENE -- 29.98 in1015.2 mb 0.43 in10.9 mm 1.20 in30.5 mm 0.43 in10.9 mm
04:33 AM 64.2°F17.9°C 63.9°F17.7°C 99% 5.0 mph E8.0 kmh E -- 29.98 in1015.2 mb 0.56 in14.2 mm 1.56 in39.6 mm 0.59 in15.0 mm
04:38 AM 64.2°F17.9°C 63.9°F17.7°C 99% 5.0 mph ESE8.0 kmh ESE -- 29.98 in1015.2 mb 0.64 in16.3 mm 0.96 in24.4 mm 0.67 in17.0 mm
04:43 AM 64.2°F17.9°C 63.9°F17.7°C 99% 6.0 mph ESE9.7 kmh ESE -- 29.98 in1015.2 mb 0.69 in17.5 mm 0.60 in15.2 mm 0.77 in19.6 mm
04:48 AM 64.2°F17.9°C 63.9°F17.7°C 99% 2.0 mph E3.2 kmh E -- 29.97 in1014.9 mb 0.72 in18.3 mm 0.36 in9.1 mm 0.80 in20.3 mm
04:53 AM 64.0°F17.8°C 63.7°F17.6°C 99% 4.0 mph ENE6.4 kmh ENE -- 29.97 in1014.9 mb 0.68 in17.3 mm 0.00 in0.0 mm 0.81 in20.6 mm
04:58 AM 64.0°F17.8°C 63.7°F17.6°C 99% 7.0 mph ESE11.3 kmh ESE -- 29.97 in1014.9 mb 0.68 in17.3 mm 0.00 in0.0 mm 0.81 in20.6 mm
05:03 AM 64.0°F17.8°C 63.7°F17.6°C 99% 4.0 mph E6.4 kmh E -- 29.96 in1014.6 mb 0.63 in16.0 mm 0.00 in0.0 mm 0.82 in20.8 mm
05:08 AM 64.0°F17.8°C 63.7°F17.6°C 99% 6.0 mph E9.7 kmh E -- 29.98 in1015.2 mb 0.74 in18.8 mm 1.32 in33.5 mm 0.93 in23.6 mm
05:13 AM 64.0°F17.8°C 63.7°F17.6°C 99% 3.0 mph ESE4.8 kmh ESE -- 29.98 in1015.2 mb 0.72 in18.3 mm 0.00 in0.0 mm 0.99 in25.1 mm
05:18 AM 64.0°F17.8°C 63.7°F17.6°C 99% 5.0 mph E8.0 kmh E -- 29.98 in1015.2 mb 0.74 in18.8 mm 0.24 in6.1 mm 1.01 in25.7 mm
05:23 AM 64.2°F17.9°C 63.9°F17.7°C 99% 2.0 mph ESE3.2 kmh ESE -- 29.97 in1014.9 mb 0.48 in12.2 mm 0.00 in0.0 mm 1.01 in25.7 mm
05:28 AM 64.2°F17.9°C 63.9°F17.7°C 99% 4.0 mph ESE6.4 kmh ESE -- 29.98 in1015.2 mb 0.51 in13.0 mm 0.36 in9.1 mm 1.04 in26.4 mm
05:33 AM 64.2°F17.9°C 63.9°F17.7°C 99% 4.0 mph E6.4 kmh E -- 29.98 in1015.2 mb 0.34 in8.6 mm 0.00 in0.0 mm 1.07 in27.2 mm
05:38 AM 64.2°F17.9°C 63.9°F17.7°C 99% 3.0 mph ENE4.8 kmh ENE -- 29.97 in1014.9 mb 0.35 in8.9 mm 0.12 in3.0 mm 1.08 in27.4 mm
05:43 AM 64.2°F17.9°C 63.9°F17.7°C 99% 4.0 mph E6.4 kmh E -- 29.97 in1014.9 mb 0.28 in7.1 mm 0.00 in0.0 mm 1.09 in27.7 mm
05:48 AM 64.4°F18.0°C 64.1°F17.8°C 99% 2.0 mph ESE3.2 kmh ESE -- 29.98 in1015.2 mb 0.30 in7.6 mm 0.24 in6.1 mm 1.11 in28.2 mm
05:53 AM 64.4°F18.0°C 64.1°F17.8°C 99% 6.0 mph E9.7 kmh E -- 29.99 in1015.6 mb 0.38 in9.7 mm 0.96 in24.4 mm 1.19 in30.2 mm
05:58 AM 64.4°F18.0°C 64.1°F17.8°C 99% 1.0 mph NNW1.6 kmh NNW -- 29.97 in1014.9 mb 0.40 in10.2 mm 0.24 in6.1 mm 1.21 in30.7 mm
06:03 AM 64.4°F18.0°C 64.1°F17.8°C 99% Calm Calm -- 29.98 in1015.2 mb 0.25 in6.4 mm 0.00 in0.0 mm 1.21 in30.7 mm
06:08 AM 64.4°F18.0°C 64.1°F17.8°C 99% 1.0 mph ESE1.6 kmh ESE -- 29.99 in1015.6 mb 0.26 in6.6 mm 0.12 in3.0 mm 1.22 in31.0 mm
06:13 AM 64.6°F18.1°C 64.3°F17.9°C 99% Calm Calm -- 29.99 in1015.6 mb 0.24 in6.1 mm 0.00 in0.0 mm 1.25 in31.8 mm
06:18 AM 64.6°F18.1°C 64.3°F17.9°C 99% 2.0 mph ESE3.2 kmh ESE -- 30.00 in1015.9 mb 0.26 in6.6 mm 0.24 in6.1 mm 1.27 in32.3 mm
06:23 AM 64.6°F18.1°C 64.3°F17.9°C 99% 1.0 mph S1.6 kmh S -- 30.00 in1015.9 mb 0.22 in5.6 mm 0.00 in0.0 mm 1.28 in32.5 mm
06:28 AM 64.6°F18.1°C 64.3°F17.9°C 99% 4.0 mph ESE6.4 kmh ESE -- 29.99 in1015.6 mb 0.23 in5.8 mm 0.12 in3.0 mm 1.29 in32.8 mm
06:33 AM 64.6°F18.1°C 64.3°F17.9°C 99% 4.0 mph ESE6.4 kmh ESE -- 29.98 in1015.2 mb 0.21 in5.3 mm 0.00 in0.0 mm 1.29 in32.8 mm
06:38 AM 64.6°F18.1°C 64.3°F17.9°C 99% Calm Calm -- 29.98 in1015.2 mb 0.21 in5.3 mm 0.00 in0.0 mm 1.29 in32.8 mm
06:43 AM 64.6°F18.1°C 64.3°F17.9°C 99% 5.0 mph E8.0 kmh E -- 29.98 in1015.2 mb 0.17 in4.3 mm 0.00 in0.0 mm 1.30 in33.0 mm
06:48 AM 64.6°F18.1°C 64.3°F17.9°C 99% 3.0 mph NE4.8 kmh NE -- 29.98 in1015.2 mb 0.17 in4.3 mm 0.00 in0.0 mm 1.30 in33.0 mm
06:53 AM 64.6°F18.1°C 64.3°F17.9°C 99% 3.0 mph E4.8 kmh E -- 29.97 in1014.9 mb 0.09 in2.3 mm 0.00 in0.0 mm 1.30 in33.0 mm
06:58 AM 64.6°F18.1°C 64.3°F17.9°C 99% 4.0 mph E6.4 kmh E -- 29.97 in1014.9 mb 0.09 in2.3 mm 0.00 in0.0 mm 1.30 in33.0 mm
07:03 AM 64.6°F18.1°C 64.3°F17.9°C 99% 5.0 mph E8.0 kmh E -- 29.97 in1014.9 mb 0.07 in1.8 mm 0.00 in0.0 mm 1.30 in33.0 mm
07:08 AM 64.6°F18.1°C 64.3°F17.9°C 99% 7.0 mph E11.3 kmh E -- 29.97 in1014.9 mb 0.07 in1.8 mm 0.00 in0.0 mm 1.30 in33.0 mm
07:13 AM 64.8°F18.2°C 64.5°F18.1°C 99% 6.0 mph ESE9.7 kmh ESE -- 29.97 in1014.9 mb 0.02 in0.5 mm 0.00 in0.0 mm 1.30 in33.0 mm
07:18 AM 64.8°F18.2°C 64.5°F18.1°C 99% 3.0 mph SE4.8 kmh SE -- 29.97 in1014.9 mb 0.02 in0.5 mm 0.00 in0.0 mm 1.30 in33.0 mm
07:23 AM 64.8°F18.2°C 64.5°F18.1°C 99% 5.0 mph ESE8.0 kmh ESE -- 29.97 in1014.9 mb 0.03 in0.8 mm 0.12 in3.0 mm 1.32 in33.5 mm
07:28 AM 64.8°F18.2°C 64.5°F18.1°C 99% 6.0 mph E9.7 kmh E -- 29.96 in1014.6 mb 0.04 in1.0 mm 0.12 in3.0 mm 1.33 in33.8 mm
07:33 AM 64.8°F18.2°C 64.5°F18.1°C 99% 4.0 mph ESE6.4 kmh ESE -- 29.96 in1014.6 mb 0.06 in1.5 mm 0.24 in6.1 mm 1.35 in34.3 mm
07:38 AM 64.9°F18.3°C 64.6°F18.1°C 99% 8.0 mph E12.9 kmh E -- 29.96 in1014.6 mb 0.07 in1.8 mm 0.12 in3.0 mm 1.36 in34.5 mm
07:43 AM 64.9°F18.3°C 64.6°F18.1°C 99% 3.0 mph ESE4.8 kmh ESE -- 29.96 in1014.6 mb 0.07 in1.8 mm 0.00 in0.0 mm 1.37 in34.8 mm
07:48 AM 64.9°F18.3°C 64.6°F18.1°C 99% 6.0 mph ESE9.7 kmh ESE -- 29.95 in1014.2 mb 0.08 in2.0 mm 0.12 in3.0 mm 1.38 in35.1 mm
07:53 AM 64.9°F18.3°C 64.6°F18.1°C 99% 3.0 mph ESE4.8 kmh ESE -- 29.96 in1014.6 mb 0.09 in2.3 mm 0.12 in3.0 mm 1.39 in35.3 mm
07:58 AM 64.9°F18.3°C 64.6°F18.1°C 99% 8.0 mph E12.9 kmh E -- 29.96 in1014.6 mb 0.09 in2.3 mm 0.00 in0.0 mm 1.39 in35.3 mm
08:03 AM 64.9°F18.3°C 64.6°F18.1°C 99% 6.0 mph NE9.7 kmh NE -- 29.96 in1014.6 mb 0.10 in2.5 mm 0.01 in0.3 mm 1.40 in35.6 mm
08:08 AM 64.9°F18.3°C 64.6°F18.1°C 99% 6.0 mph E9.7 kmh E -- 29.95 in1014.2 mb 0.11 in2.8 mm 0.12 in3.0 mm 1.41 in35.8 mm
08:13 AM 65.1°F18.4°C 64.8°F18.2°C 99% 6.0 mph E9.7 kmh E -- 29.95 in1014.2 mb 0.11 in2.8 mm 0.00 in0.0 mm 1.42 in36.1 mm
08:18 AM 65.1°F18.4°C 64.8°F18.2°C 99% 8.0 mph ESE12.9 kmh ESE -- 29.95 in1014.2 mb 0.13 in3.3 mm 0.24 in6.1 mm 1.44 in36.6 mm
08:23 AM 65.1°F18.4°C 64.8°F18.2°C 99% 5.0 mph NE8.0 kmh NE -- 29.94 in1013.9 mb 0.13 in3.3 mm 0.00 in0.0 mm 1.47 in37.3 mm
08:28 AM 65.1°F18.4°C 64.8°F18.2°C 99% 4.0 mph ESE6.4 kmh ESE -- 29.95 in1014.2 mb 0.16 in4.1 mm 0.36 in9.1 mm 1.50 in38.1 mm
08:33 AM 65.3°F18.5°C 65.0°F18.3°C 99% 6.0 mph ESE9.7 kmh ESE -- 29.95 in1014.2 mb 0.16 in4.1 mm 0.00 in0.0 mm 1.53 in38.9 mm
08:38 AM 65.3°F18.5°C 65.0°F18.3°C 99% 5.0 mph SSE8.0 kmh SSE -- 29.95 in1014.2 mb 0.19 in4.8 mm 0.36 in9.1 mm 1.56 in39.6 mm
08:43 AM 65.3°F18.5°C 65.0°F18.3°C 99% 6.0 mph E9.7 kmh E -- 29.96 in1014.6 mb 0.20 in5.1 mm 0.12 in3.0 mm 1.58 in40.1 mm
08:48 AM 65.3°F18.5°C 65.0°F18.3°C 99% 7.0 mph ESE11.3 kmh ESE -- 29.95 in1014.2 mb 0.25 in6.4 mm 0.60 in15.2 mm 1.63 in41.4 mm
08:53 AM 65.3°F18.5°C 65.0°F18.3°C 99% 6.0 mph E9.7 kmh E -- 29.94 in1013.9 mb 0.26 in6.6 mm 0.12 in3.0 mm 1.65 in41.9 mm
08:58 AM 65.3°F18.5°C 65.0°F18.3°C 99% 5.0 mph E8.0 kmh E -- 29.94 in1013.9 mb 0.29 in7.4 mm 0.36 in9.1 mm 1.68 in42.7 mm
09:03 AM 65.3°F18.5°C 65.0°F18.3°C 99% Calm Calm -- 29.94 in1013.9 mb 0.32 in8.1 mm 0.03 in0.8 mm 1.73 in43.9 mm
09:08 AM 65.3°F18.5°C 65.0°F18.3°C 99% 3.0 mph ESE4.8 kmh ESE -- 29.95 in1014.2 mb 0.36 in9.1 mm 0.48 in12.2 mm 1.77 in45.0 mm
09:13 AM 65.3°F18.5°C 65.0°F18.3°C 99% 2.0 mph ESE3.2 kmh ESE -- 29.95 in1014.2 mb 0.36 in9.1 mm 0.00 in0.0 mm 1.81 in46.0 mm
09:18 AM 65.3°F18.5°C 65.0°F18.3°C 99% Calm Calm -- 29.95 in1014.2 mb 0.41 in10.4 mm 0.60 in15.2 mm 1.86 in47.2 mm
09:23 AM 65.3°F18.5°C 65.0°F18.3°C 99% 11.0 mph ESE17.7 kmh ESE -- 29.94 in1013.9 mb 0.39 in9.9 mm 0.00 in0.0 mm 1.90 in48.3 mm
09:28 AM 65.3°F18.5°C 65.0°F18.3°C 99% 10.0 mph ESE16.1 kmh ESE -- 29.94 in1013.9 mb 0.43 in10.9 mm 0.48 in12.2 mm 1.94 in49.3 mm
09:33 AM 65.5°F18.6°C 65.2°F18.4°C 99% 4.0 mph ESE6.4 kmh ESE -- 29.93 in1013.5 mb 0.38 in9.7 mm 0.00 in0.0 mm 1.95 in49.5 mm
09:38 AM 65.8°F18.8°C 65.5°F18.6°C 99% 6.0 mph ESE9.7 kmh ESE -- 29.94 in1013.9 mb 0.39 in9.9 mm 0.12 in3.0 mm 1.96 in49.8 mm
09:43 AM 65.8°F18.8°C 65.5°F18.6°C 99% 4.0 mph ENE6.4 kmh ENE -- 29.94 in1013.9 mb 0.32 in8.1 mm 0.00 in0.0 mm 1.96 in49.8 mm
09:48 AM 65.8°F18.8°C 65.5°F18.6°C 99% 11.0 mph ESE17.7 kmh ESE -- 29.93 in1013.5 mb 0.34 in8.6 mm 0.24 in6.1 mm 1.98 in50.3 mm
09:53 AM 65.8°F18.8°C 65.5°F18.6°C 99% 7.0 mph ESE11.3 kmh ESE -- 29.92 in1013.2 mb 0.27 in6.9 mm 0.00 in0.0 mm 1.98 in50.3 mm
09:58 AM 65.8°F18.8°C 65.5°F18.6°C 99% 9.0 mph ESE14.5 kmh ESE -- 29.92 in1013.2 mb 0.28 in7.1 mm 0.12 in3.0 mm 1.99 in50.5 mm
10:03 AM 65.8°F18.8°C 65.5°F18.6°C 99% 9.0 mph SE14.5 kmh SE -- 29.93 in1013.5 mb 0.19 in4.8 mm 0.00 in0.0 mm 1.99 in50.5 mm
10:08 AM 65.8°F18.8°C 65.5°F18.6°C 99% 10.0 mph E16.1 kmh E -- 29.93 in1013.5 mb 0.19 in4.8 mm 0.00 in0.0 mm 1.99 in50.5 mm
10:13 AM 66.2°F19.0°C 65.9°F18.8°C 99% 11.0 mph ESE17.7 kmh ESE -- 29.92 in1013.2 mb 0.10 in2.5 mm 0.00 in0.0 mm 1.99 in50.5 mm
10:18 AM 66.2°F19.0°C 65.9°F18.8°C 99% 11.0 mph E17.7 kmh E -- 29.92 in1013.2 mb 0.10 in2.5 mm 0.00 in0.0 mm 1.99 in50.5 mm
10:23 AM 66.6°F19.2°C 66.3°F19.1°C 99% 8.0 mph ESE12.9 kmh ESE -- 29.92 in1013.2 mb 0.04 in1.0 mm 0.00 in0.0 mm 1.99 in50.5 mm
10:28 AM 66.7°F19.3°C 66.4°F19.1°C 99% 5.0 mph SE8.0 kmh SE -- 29.92 in1013.2 mb 0.04 in1.0 mm 0.00 in0.0 mm 1.99 in50.5 mm
10:33 AM 66.9°F19.4°C 66.6°F19.2°C 99% 6.0 mph ESE9.7 kmh ESE -- 29.92 in1013.2 mb 0.03 in0.8 mm 0.00 in0.0 mm 1.99 in50.5 mm
10:38 AM 67.5°F19.7°C 67.2°F19.6°C 99% 5.0 mph ESE8.0 kmh ESE -- 29.92 in1013.2 mb 0.03 in0.8 mm 0.00 in0.0 mm 1.99 in50.5 mm
10:43 AM 67.6°F19.8°C 67.3°F19.6°C 99% 2.0 mph ENE3.2 kmh ENE -- 29.92 in1013.2 mb 0.01 in0.3 mm 0.00 in0.0 mm 1.99 in50.5 mm
10:48 AM 67.6°F19.8°C 67.3°F19.6°C 99% 5.0 mph ESE8.0 kmh ESE -- 29.92 in1013.2 mb 0.01 in0.3 mm 0.00 in0.0 mm 1.99 in50.5 mm
10:53 AM 68.0°F20.0°C 67.4°F19.7°C 98% 6.0 mph ESE9.7 kmh ESE -- 29.93 in1013.5 mb 0.00 in0.0 mm 0.00 in0.0 mm 1.99 in50.5 mm
10:58 AM 68.7°F20.4°C 68.1°F20.1°C 98% 1.0 mph SSE1.6 kmh SSE -- 29.93 in1013.5 mb 0.00 in0.0 mm 0.00 in0.0 mm 1.99 in50.5 mm
11:03 AM 69.1°F20.6°C 68.2°F20.1°C 97% 3.0 mph SSE4.8 kmh SSE -- 29.93 in1013.5 mb 0.00 in0.0 mm 0.00 in0.0 mm 1.99 in50.5 mm
11:08 AM 68.9°F20.5°C 68.0°F20.0°C 97% 2.0 mph ESE3.2 kmh ESE -- 29.93 in1013.5 mb 0.00 in0.0 mm 0.00 in0.0 mm 1.99 in50.5 mm
11:13 AM 69.1°F20.6°C 68.2°F20.1°C 97% 1.0 mph SSE1.6 kmh SSE -- 29.92 in1013.2 mb 0.00 in0.0 mm 0.00 in0.0 mm 1.99 in50.5 mm
11:18 AM 70.0°F21.1°C 68.8°F20.4°C 96% 2.0 mph SE3.2 kmh SE -- 29.93 in1013.5 mb 0.00 in0.0 mm 0.00 in0.0 mm 1.99 in50.5 mm
11:23 AM 70.0°F21.1°C 68.8°F20.4°C 96% 1.0 mph ESE1.6 kmh ESE -- 29.93 in1013.5 mb 0.00 in0.0 mm 0.00 in0.0 mm 1.99 in50.5 mm
11:28 AM 70.5°F21.4°C 69.3°F20.7°C 96% 1.0 mph ESE1.6 kmh ESE -- 29.93 in1013.5 mb 0.00 in0.0 mm 0.00 in0.0 mm 1.99 in50.5 mm
11:33 AM 70.2°F21.2°C 69.0°F20.6°C 96% 1.0 mph S1.6 kmh S -- 29.93 in1013.5 mb 0.00 in0.0 mm 0.00 in0.0 mm 1.99 in50.5 mm
11:38 AM 70.2°F21.2°C 69.0°F20.6°C 96% 1.0 mph ESE1.6 kmh ESE -- 29.93 in1013.5 mb 0.00 in0.0 mm 0.00 in0.0 mm 1.99 in50.5 mm
11:43 AM 70.3°F21.3°C 69.1°F20.6°C 96% 2.0 mph SSW3.2 kmh SSW -- 29.93 in1013.5 mb 0.00 in0.0 mm 0.00 in0.0 mm 1.99 in50.5 mm
11:48 AM 70.0°F21.1°C 68.8°F20.4°C 96% Calm Calm -- 29.93 in1013.5 mb 0.00 in0.0 mm 0.00 in0.0 mm 1.99 in50.5 mm
11:53 AM 70.2°F21.2°C 69.0°F20.6°C 96% Calm Calm -- 29.94 in1013.9 mb 0.00 in0.0 mm 0.00 in0.0 mm 1.99 in50.5 mm
11:58 AM 70.2°F21.2°C 69.0°F20.6°C 96% 2.0 mph SSE3.2 kmh SSE -- 29.94 in1013.9 mb 0.00 in0.0 mm 0.00 in0.0 mm 1.99 in50.5 mm
12:03 PM 70.2°F21.2°C 69.0°F20.6°C 96% 2.0 mph WSW3.2 kmh WSW -- 29.94 in1013.9 mb 0.00 in0.0 mm 0.00 in0.0 mm 1.99 in50.5 mm
12:08 PM 69.8°F21.0°C 68.9°F20.5°C 97% 1.0 mph NNE1.6 kmh NNE -- 29.94 in1013.9 mb 0.00 in0.0 mm 0.00 in0.0 mm 1.99 in50.5 mm
12:13 PM 70.2°F21.2°C 69.3°F20.7°C 97% 2.0 mph ESE3.2 kmh ESE -- 29.94 in1013.9 mb 0.00 in0.0 mm 0.00 in0.0 mm 1.99 in50.5 mm
12:18 PM 70.9°F21.6°C 69.7°F20.9°C 96% 1.0 mph WSW1.6 kmh WSW -- 29.94 in1013.9 mb 0.00 in0.0 mm 0.00 in0.0 mm 1.99 in50.5 mm
12:23 PM 70.7°F21.5°C 69.5°F20.8°C 96% 2.0 mph SSW3.2 kmh SSW -- 29.94 in1013.9 mb 0.00 in0.0 mm 0.00 in0.0 mm 1.99 in50.5 mm
12:28 PM 70.5°F21.4°C 69.3°F20.7°C 96% 2.0 mph SE3.2 kmh SE -- 29.94 in1013.9 mb 0.00 in0.0 mm 0.00 in0.0 mm 1.99 in50.5 mm
12:33 PM 70.7°F21.5°C 69.5°F20.8°C 96% Calm Calm -- 29.94 in1013.9 mb 0.00 in0.0 mm 0.00 in0.0 mm 1.99 in50.5 mm
12:38 PM 71.1°F21.7°C 69.9°F21.1°C 96% 2.0 mph SW3.2 kmh SW -- 29.94 in1013.9 mb 0.00 in0.0 mm 0.00 in0.0 mm 1.99 in50.5 mm
12:43 PM 71.6°F22.0°C 70.1°F21.2°C 95% 1.0 mph SSE1.6 kmh SSE -- 29.94 in1013.9 mb 0.00 in0.0 mm 0.00 in0.0 mm 1.99 in50.5 mm
12:48 PM 73.2°F22.9°C 71.7°F22.1°C 95% 2.0 mph WSW3.2 kmh WSW -- 29.94 in1013.9 mb 0.00 in0.0 mm 0.00 in0.0 mm 1.99 in50.5 mm
12:53 PM 74.3°F23.5°C 72.5°F22.5°C 94% 2.0 mph WSW3.2 kmh WSW -- 29.93 in1013.5 mb 0.00 in0.0 mm 0.00 in0.0 mm 1.99 in50.5 mm
12:58 PM 73.9°F23.3°C 72.1°F22.3°C 94% 3.0 mph ESE4.8 kmh ESE -- 29.93 in1013.5 mb 0.00 in0.0 mm 0.00 in0.0 mm 1.99 in50.5 mm
01:03 PM 73.6°F23.1°C 71.8°F22.1°C 94% 4.0 mph W6.4 kmh W -- 29.93 in1013.5 mb 0.00 in0.0 mm 0.00 in0.0 mm 1.99 in50.5 mm
01:08 PM 73.2°F22.9°C 71.4°F21.9°C 94% 2.0 mph NNE3.2 kmh NNE -- 29.93 in1013.5 mb 0.00 in0.0 mm 0.00 in0.0 mm 1.99 in50.5 mm
01:13 PM 73.0°F22.8°C 71.2°F21.8°C 94% 2.0 mph SSE3.2 kmh SSE -- 29.93 in1013.5 mb 0.00 in0.0 mm 0.00 in0.0 mm 1.99 in50.5 mm
01:18 PM 73.4°F23.0°C 71.6°F22.0°C 94% 2.0 mph NW3.2 kmh NW -- 29.93 in1013.5 mb 0.00 in0.0 mm 0.00 in0.0 mm 1.99 in50.5 mm
01:23 PM 73.2°F22.9°C 71.4°F21.9°C 94% 1.0 mph W1.6 kmh W -- 29.93 in1013.5 mb 0.00 in0.0 mm 0.00 in0.0 mm 1.99 in50.5 mm
01:28 PM 73.8°F23.2°C 72.0°F22.2°C 94% 1.0 mph WSW1.6 kmh WSW -- 29.92 in1013.2 mb 0.00 in0.0 mm 0.00 in0.0 mm 1.99 in50.5 mm
01:33 PM 73.9°F23.3°C 72.1°F22.3°C 94% 2.0 mph E3.2 kmh E -- 29.92 in1013.2 mb 0.00 in0.0 mm 0.00 in0.0 mm 1.99 in50.5 mm
01:38 PM 73.9°F23.3°C 72.1°F22.3°C 94% 2.0 mph ESE3.2 kmh ESE -- 29.92 in1013.2 mb 0.00 in0.0 mm 0.00 in0.0 mm 1.99 in50.5 mm
01:43 PM 74.8°F23.8°C 73.0°F22.8°C 94% 2.0 mph WSW3.2 kmh WSW -- 29.92 in1013.2 mb 0.00 in0.0 mm 0.00 in0.0 mm 1.99 in50.5 mm
01:48 PM 75.4°F24.1°C 73.5°F23.1°C 94% 2.0 mph S3.2 kmh S -- 29.92 in1013.2 mb 0.00 in0.0 mm 0.00 in0.0 mm 1.99 in50.5 mm
01:53 PM 75.7°F24.3°C 73.5°F23.1°C 93% 2.0 mph WSW3.2 kmh WSW -- 29.92 in1013.2 mb 0.00 in0.0 mm 0.00 in0.0 mm 1.99 in50.5 mm
01:58 PM 76.5°F24.7°C 74.3°F23.5°C 93% 2.0 mph S3.2 kmh S -- 29.91 in1012.9 mb 0.00 in0.0 mm 0.00 in0.0 mm 1.99 in50.5 mm
02:03 PM 76.3°F24.6°C 74.1°F23.4°C 93% 2.0 mph SE3.2 kmh SE -- 29.91 in1012.9 mb 0.00 in0.0 mm 0.00 in0.0 mm 1.99 in50.5 mm
02:08 PM 77.0°F25.0°C 74.8°F23.8°C 93% 4.0 mph W6.4 kmh W -- 29.91 in1012.9 mb 0.00 in0.0 mm 0.00 in0.0 mm 1.99 in50.5 mm
02:13 PM 77.2°F25.1°C 75.0°F23.9°C 93% 3.0 mph WSW4.8 kmh WSW -- 29.90 in1012.5 mb 0.00 in0.0 mm 0.00 in0.0 mm 1.99 in50.5 mm
02:18 PM 76.8°F24.9°C 74.6°F23.7°C 93% 4.0 mph NNW6.4 kmh NNW -- 29.91 in1012.9 mb 0.00 in0.0 mm 0.00 in0.0 mm 1.99 in50.5 mm
02:23 PM 77.2°F25.1°C 75.0°F23.9°C 93% 3.0 mph W4.8 kmh W -- 29.91 in1012.9 mb 0.00 in0.0 mm 0.00 in0.0 mm 1.99 in50.5 mm
02:28 PM 77.4°F25.2°C 75.2°F24.0°C 93% 2.0 mph W3.2 kmh W -- 29.91 in1012.9 mb 0.00 in0.0 mm 0.00 in0.0 mm 1.99 in50.5 mm
02:33 PM 77.9°F25.5°C 75.7°F24.3°C 93% 3.0 mph SW4.8 kmh SW -- 29.91 in1012.9 mb 0.00 in0.0 mm 0.00 in0.0 mm 1.99 in50.5 mm
02:38 PM 77.4°F25.2°C 75.2°F24.0°C 93% 2.0 mph ESE3.2 kmh ESE -- 29.90 in1012.5 mb 0.00 in0.0 mm 0.00 in0.0 mm 1.99 in50.5 mm
02:43 PM 77.5°F25.3°C 75.3°F24.1°C 93% 3.0 mph SW4.8 kmh SW -- 29.90 in1012.5 mb 0.00 in0.0 mm 0.00 in0.0 mm 1.99 in50.5 mm
02:48 PM 78.1°F25.6°C 75.9°F24.4°C 93% 3.0 mph W4.8 kmh W -- 29.90 in1012.5 mb 0.00 in0.0 mm 0.00 in0.0 mm 1.99 in50.5 mm
03:04 PM 78.1°F25.6°C 75.9°F24.4°C 93% 4.0 mph ESE6.4 kmh ESE -- 29.89 in1012.2 mb 0.00 in0.0 mm 0.00 in0.0 mm 1.99 in50.5 mm
03:08 PM 79.3°F26.3°C 76.8°F24.9°C 92% 2.0 mph SSW3.2 kmh SSW -- 29.89 in1012.2 mb 0.00 in0.0 mm 0.00 in0.0 mm 1.99 in50.5 mm
03:13 PM 80.2°F26.8°C 77.7°F25.4°C 92% 2.0 mph W3.2 kmh W -- 29.89 in1012.2 mb 0.00 in0.0 mm 0.00 in0.0 mm 1.99 in50.5 mm
03:18 PM 80.6°F27.0°C 77.4°F25.2°C 90% 3.0 mph W4.8 kmh W -- 29.89 in1012.2 mb 0.00 in0.0 mm 0.00 in0.0 mm 1.99 in50.5 mm
03:23 PM 80.8°F27.1°C 77.6°F25.3°C 90% 2.0 mph WNW3.2 kmh WNW -- 29.89 in1012.2 mb 0.00 in0.0 mm 0.00 in0.0 mm 1.99 in50.5 mm
03:28 PM 80.8°F27.1°C 77.6°F25.3°C 90% 1.0 mph S1.6 kmh S -- 29.89 in1012.2 mb 0.00 in0.0 mm 0.00 in0.0 mm 1.99 in50.5 mm
03:33 PM 80.8°F27.1°C 77.6°F25.3°C 90% 3.0 mph SW4.8 kmh SW -- 29.89 in1012.2 mb 0.00 in0.0 mm 0.00 in0.0 mm 1.99 in50.5 mm
03:38 PM 80.2°F26.8°C 77.3°F25.2°C 91% 4.0 mph W6.4 kmh W -- 29.89 in1012.2 mb 0.00 in0.0 mm 0.00 in0.0 mm 1.99 in50.5 mm
03:43 PM 79.5°F26.4°C 76.6°F24.8°C 91% 3.0 mph NE4.8 kmh NE -- 29.89 in1012.2 mb 0.00 in0.0 mm 0.00 in0.0 mm 1.99 in50.5 mm
03:48 PM 79.5°F26.4°C 76.6°F24.8°C 91% 2.0 mph NNW3.2 kmh NNW -- 29.89 in1012.2 mb 0.00 in0.0 mm 0.00 in0.0 mm 1.99 in50.5 mm
03:53 PM 79.2°F26.2°C 76.3°F24.6°C 91% 3.0 mph WSW4.8 kmh WSW -- 29.89 in1012.2 mb 0.00 in0.0 mm 0.00 in0.0 mm 1.99 in50.5 mm
03:58 PM 79.0°F26.1°C 76.5°F24.7°C 92% 2.0 mph SSE3.2 kmh SSE -- 29.89 in1012.2 mb 0.00 in0.0 mm 0.00 in0.0 mm 1.99 in50.5 mm
04:03 PM 79.2°F26.2°C 76.7°F24.8°C 92% 1.0 mph S1.6 kmh S -- 29.89 in1012.2 mb 0.00 in0.0 mm 0.00 in0.0 mm 1.99 in50.5 mm
04:08 PM 77.7°F25.4°C 75.8°F24.3°C 94% 1.0 mph W1.6 kmh W -- 29.90 in1012.5 mb 0.44 in11.2 mm 5.28 in134.1 mm 2.43 in61.7 mm
04:13 PM 75.6°F24.2°C 74.1°F23.4°C 95% 5.0 mph W8.0 kmh W -- 29.90 in1012.5 mb 0.46 in11.7 mm 0.24 in6.1 mm 2.45 in62.2 mm
04:18 PM 75.2°F24.0°C 73.7°F23.2°C 95% 6.0 mph WNW9.7 kmh WNW -- 29.90 in1012.5 mb 0.46 in11.7 mm 0.00 in0.0 mm 2.45 in62.2 mm
04:23 PM 75.0°F23.9°C 73.5°F23.1°C 95% 14.0 mph W22.5 kmh W -- 29.91 in1012.9 mb 0.46 in11.7 mm 0.00 in0.0 mm 2.45 in62.2 mm
04:28 PM 74.8°F23.8°C 73.3°F22.9°C 95% 12.0 mph W19.3 kmh W -- 29.91 in1012.9 mb 0.46 in11.7 mm 0.00 in0.0 mm 2.45 in62.2 mm
04:33 PM 74.7°F23.7°C 73.2°F22.9°C 95% 12.0 mph W19.3 kmh W -- 29.91 in1012.9 mb 0.46 in11.7 mm 0.00 in0.0 mm 2.45 in62.2 mm
04:38 PM 74.5°F23.6°C 73.0°F22.8°C 95% 12.0 mph W19.3 kmh W -- 29.91 in1012.9 mb 0.46 in11.7 mm 0.00 in0.0 mm 2.45 in62.2 mm
04:43 PM 74.5°F23.6°C 72.7°F22.6°C 94% 16.0 mph WSW25.7 kmh WSW -- 29.91 in1012.9 mb 0.46 in11.7 mm 0.00 in0.0 mm 2.45 in62.2 mm
04:48 PM 74.7°F23.7°C 72.5°F22.5°C 93% 13.0 mph WSW20.9 kmh WSW -- 29.91 in1012.9 mb 0.46 in11.7 mm 0.00 in0.0 mm 2.45 in62.2 mm
04:53 PM 74.5°F23.6°C 72.3°F22.4°C 93% 9.0 mph W14.5 kmh W -- 29.92 in1013.2 mb 0.46 in11.7 mm 0.00 in0.0 mm 2.45 in62.2 mm
04:58 PM 73.6°F23.1°C 71.4°F21.9°C 93% 17.0 mph W27.4 kmh W -- 29.92 in1013.2 mb 0.46 in11.7 mm 0.00 in0.0 mm 2.45 in62.2 mm
05:03 PM 73.4°F23.0°C 71.2°F21.8°C 93% 8.0 mph W12.9 kmh W -- 29.93 in1013.5 mb 0.00 in0.0 mm 0.00 in0.0 mm 2.45 in62.2 mm
05:08 PM 73.4°F23.0°C 71.2°F21.8°C 93% 8.0 mph W12.9 kmh W -- 29.93 in1013.5 mb 0.00 in0.0 mm 0.00 in0.0 mm 2.45 in62.2 mm
05:13 PM 74.1°F23.4°C 71.9°F22.2°C 93% 11.0 mph W17.7 kmh W -- 29.93 in1013.5 mb 0.00 in0.0 mm 0.00 in0.0 mm 2.45 in62.2 mm
05:18 PM 74.1°F23.4°C 71.9°F22.2°C 93% 16.0 mph WSW25.7 kmh WSW -- 29.93 in1013.5 mb 0.00 in0.0 mm 0.00 in0.0 mm 2.45 in62.2 mm
05:23 PM 73.4°F23.0°C 71.2°F21.8°C 93% 9.0 mph W14.5 kmh W -- 29.93 in1013.5 mb 0.00 in0.0 mm 0.00 in0.0 mm 2.45 in62.2 mm
05:28 PM 73.0°F22.8°C 70.9°F21.6°C 93% 10.0 mph W16.1 kmh W -- 29.93 in1013.5 mb 0.00 in0.0 mm 0.00 in0.0 mm 2.45 in62.2 mm
05:33 PM 72.1°F22.3°C 70.0°F21.1°C 93% 16.0 mph W25.7 kmh W -- 29.94 in1013.9 mb 0.00 in0.0 mm 0.00 in0.0 mm 2.45 in62.2 mm
05:38 PM 71.4°F21.9°C 69.6°F20.9°C 94% 12.0 mph W19.3 kmh W -- 29.94 in1013.9 mb 0.00 in0.0 mm 0.00 in0.0 mm 2.45 in62.2 mm
05:43 PM 70.9°F21.6°C 69.1°F20.6°C 94% 16.0 mph W25.7 kmh W -- 29.94 in1013.9 mb 0.00 in0.0 mm 0.00 in0.0 mm 2.45 in62.2 mm
05:48 PM 70.3°F21.3°C 68.5°F20.3°C 94% 9.0 mph WSW14.5 kmh WSW -- 29.95 in1014.2 mb 0.00 in0.0 mm 0.00 in0.0 mm 2.45 in62.2 mm
05:53 PM 70.3°F21.3°C 68.5°F20.3°C 94% 10.0 mph W16.1 kmh W -- 29.95 in1014.2 mb 0.00 in0.0 mm 0.00 in0.0 mm 2.45 in62.2 mm
05:58 PM 70.2°F21.2°C 68.4°F20.2°C 94% 11.0 mph WSW17.7 kmh WSW -- 29.96 in1014.6 mb 0.00 in0.0 mm 0.00 in0.0 mm 2.45 in62.2 mm
06:03 PM 70.2°F21.2°C 68.4°F20.2°C 94% 5.0 mph W8.0 kmh W -- 29.96 in1014.6 mb 0.00 in0.0 mm 0.00 in0.0 mm 2.45 in62.2 mm
06:08 PM 70.2°F21.2°C 68.4°F20.2°C 94% 10.0 mph 16.1 kmh -- 29.96 in1014.6 mb 0.00 in0.0 mm 0.00 in0.0 mm 2.45 in62.2 mm
06:13 PM 70.2°F21.2°C 68.4°F20.2°C 94% 5.0 mph WNW8.0 kmh WNW -- 29.97 in1014.9 mb 0.00 in0.0 mm 0.00 in0.0 mm 2.45 in62.2 mm
06:18 PM 70.0°F21.1°C 68.2°F20.1°C 94% 9.0 mph NE14.5 kmh NE -- 29.97 in1014.9 mb 0.00 in0.0 mm 0.00 in0.0 mm 2.45 in62.2 mm
06:23 PM 69.8°F21.0°C 68.0°F20.0°C 94% 9.0 mph W14.5 kmh W -- 29.98 in1015.2 mb 0.00 in0.0 mm 0.00 in0.0 mm 2.45 in62.2 mm
06:28 PM 69.6°F20.9°C 67.8°F19.9°C 94% 6.0 mph W9.7 kmh W -- 29.98 in1015.2 mb 0.00 in0.0 mm 0.00 in0.0 mm 2.45 in62.2 mm
06:33 PM 69.6°F20.9°C 67.8°F19.9°C 94% 6.0 mph WNW9.7 kmh WNW -- 29.98 in1015.2 mb 0.00 in0.0 mm 0.00 in0.0 mm 2.45 in62.2 mm
06:38 PM 69.4°F20.8°C 67.6°F19.8°C 94% 8.0 mph W12.9 kmh W -- 29.98 in1015.2 mb 0.00 in0.0 mm 0.00 in0.0 mm 2.45 in62.2 mm
06:43 PM 69.4°F20.8°C 67.6°F19.8°C 94% 8.0 mph W12.9 kmh W -- 29.98 in1015.2 mb 0.00 in0.0 mm 0.00 in0.0 mm 2.45 in62.2 mm
06:48 PM 69.4°F20.8°C 67.6°F19.8°C 94% 6.0 mph W9.7 kmh W -- 29.99 in1015.6 mb 0.00 in0.0 mm 0.00 in0.0 mm 2.45 in62.2 mm
06:53 PM 69.4°F20.8°C 67.6°F19.8°C 94% 4.0 mph W6.4 kmh W -- 29.99 in1015.6 mb 0.00 in0.0 mm 0.00 in0.0 mm 2.45 in62.2 mm
06:58 PM 69.4°F20.8°C 67.6°F19.8°C 94% 5.0 mph WNW8.0 kmh WNW -- 29.99 in1015.6 mb 0.00 in0.0 mm 0.00 in0.0 mm 2.45 in62.2 mm
07:03 PM 69.4°F20.8°C 67.6°F19.8°C 94% 5.0 mph WSW8.0 kmh WSW -- 29.99 in1015.6 mb 0.00 in0.0 mm 0.00 in0.0 mm 2.45 in62.2 mm
07:08 PM 69.3°F20.7°C 67.5°F19.7°C 94% 3.0 mph W4.8 kmh W -- 30.00 in1015.9 mb 0.00 in0.0 mm 0.00 in0.0 mm 2.45 in62.2 mm
07:13 PM 69.1°F20.6°C 67.3°F19.6°C 94% 5.0 mph W8.0 kmh W -- 30.00 in1015.9 mb 0.00 in0.0 mm 0.00 in0.0 mm 2.45 in62.2 mm
07:18 PM 69.1°F20.6°C 67.3°F19.6°C 94% 4.0 mph W6.4 kmh W -- 30.00 in1015.9 mb 0.00 in0.0 mm 0.00 in0.0 mm 2.45 in62.2 mm
07:23 PM 69.1°F20.6°C 67.3°F19.6°C 94% 4.0 mph W6.4 kmh W -- 30.00 in1015.9 mb 0.00 in0.0 mm 0.00 in0.0 mm 2.45 in62.2 mm
07:28 PM 69.1°F20.6°C 67.3°F19.6°C 94% 3.0 mph WSW4.8 kmh WSW -- 30.01 in1016.3 mb 0.00 in0.0 mm 0.00 in0.0 mm 2.45 in62.2 mm
07:33 PM 68.9°F20.5°C 67.1°F19.5°C 94% 3.0 mph SW4.8 kmh SW -- 30.01 in1016.3 mb 0.00 in0.0 mm 0.00 in0.0 mm 2.45 in62.2 mm
07:38 PM 68.9°F20.5°C 67.1°F19.5°C 94% 3.0 mph W4.8 kmh W -- 30.01 in1016.3 mb 0.00 in0.0 mm 0.00 in0.0 mm 2.45 in62.2 mm
07:43 PM 68.9°F20.5°C 67.1°F19.5°C 94% 3.0 mph WSW4.8 kmh WSW -- 30.01 in1016.3 mb 0.00 in0.0 mm 0.00 in0.0 mm 2.45 in62.2 mm
07:48 PM 68.9°F20.5°C 67.1°F19.5°C 94% 2.0 mph W3.2 kmh W -- 30.02 in1016.6 mb 0.00 in0.0 mm 0.00 in0.0 mm 2.45 in62.2 mm
07:53 PM 68.7°F20.4°C 66.9°F19.4°C 94% 3.0 mph W4.8 kmh W -- 30.02 in1016.6 mb 0.00 in0.0 mm 0.00 in0.0 mm 2.45 in62.2 mm
07:58 PM 68.7°F20.4°C 66.9°F19.4°C 94% 6.0 mph W9.7 kmh W -- 30.02 in1016.6 mb 0.00 in0.0 mm 0.00 in0.0 mm 2.45 in62.2 mm
08:03 PM 68.5°F20.3°C 66.7°F19.3°C 94% 6.0 mph WNW9.7 kmh WNW -- 30.02 in1016.6 mb 0.00 in0.0 mm 0.00 in0.0 mm 2.45 in62.2 mm
08:08 PM 68.5°F20.3°C 66.7°F19.3°C 94% 4.0 mph SW6.4 kmh SW -- 30.03 in1016.9 mb 0.00 in0.0 mm 0.00 in0.0 mm 2.45 in62.2 mm
08:13 PM 68.5°F20.3°C 66.7°F19.3°C 94% 4.0 mph SW6.4 kmh SW -- 30.03 in1016.9 mb 0.00 in0.0 mm 0.00 in0.0 mm 2.45 in62.2 mm
08:18 PM 68.5°F20.3°C 66.7°F19.3°C 94% 5.0 mph SW8.0 kmh SW -- 30.04 in1017.3 mb 0.00 in0.0 mm 0.00 in0.0 mm 2.45 in62.2 mm
08:23 PM 68.4°F20.2°C 66.6°F19.2°C 94% 5.0 mph W8.0 kmh W -- 30.04 in1017.3 mb 0.00 in0.0 mm 0.00 in0.0 mm 2.45 in62.2 mm
08:28 PM 68.4°F20.2°C 66.6°F19.2°C 94% 8.0 mph W12.9 kmh W -- 30.04 in1017.3 mb 0.00 in0.0 mm 0.00 in0.0 mm 2.45 in62.2 mm
08:33 PM 68.2°F20.1°C 66.4°F19.1°C 94% 9.0 mph WNW14.5 kmh WNW -- 30.04 in1017.3 mb 0.00 in0.0 mm 0.00 in0.0 mm 2.45 in62.2 mm
08:38 PM 68.2°F20.1°C 66.4°F19.1°C 94% 8.0 mph W12.9 kmh W -- 30.04 in1017.3 mb 0.00 in0.0 mm 0.00 in0.0 mm 2.45 in62.2 mm
08:43 PM 68.2°F20.1°C 66.4°F19.1°C 94% 5.0 mph W8.0 kmh W -- 30.05 in1017.6 mb 0.00 in0.0 mm 0.00 in0.0 mm 2.45 in62.2 mm
08:48 PM 68.2°F20.1°C 66.4°F19.1°C 94% 4.0 mph WSW6.4 kmh WSW -- 30.04 in1017.3 mb 0.00 in0.0 mm 0.00 in0.0 mm 2.45 in62.2 mm
08:53 PM 68.2°F20.1°C 66.1°F18.9°C 93% 8.0 mph W12.9 kmh W -- 30.05 in1017.6 mb 0.00 in0.0 mm 0.00 in0.0 mm 2.45 in62.2 mm
08:58 PM 68.0°F20.0°C 65.9°F18.8°C 93% 4.0 mph W6.4 kmh W -- 30.05 in1017.6 mb 0.00 in0.0 mm 0.00 in0.0 mm 2.45 in62.2 mm
09:03 PM 68.0°F20.0°C 65.9°F18.8°C 93% 2.0 mph SSW3.2 kmh SSW -- 30.05 in1017.6 mb 0.00 in0.0 mm 0.00 in0.0 mm 2.45 in62.2 mm
09:08 PM 67.8°F19.9°C 65.7°F18.7°C 93% 3.0 mph W4.8 kmh W -- 30.05 in1017.6 mb 0.00 in0.0 mm 0.00 in0.0 mm 2.45 in62.2 mm
09:13 PM 67.8°F19.9°C 65.7°F18.7°C 93% 4.0 mph W6.4 kmh W -- 30.06 in1017.9 mb 0.00 in0.0 mm 0.00 in0.0 mm 2.45 in62.2 mm
09:18 PM 67.6°F19.8°C 65.5°F18.6°C 93% 4.0 mph W6.4 kmh W -- 30.06 in1017.9 mb 0.00 in0.0 mm 0.00 in0.0 mm 2.45 in62.2 mm
09:23 PM 67.3°F19.6°C 65.2°F18.4°C 93% 4.0 mph W6.4 kmh W -- 30.06 in1017.9 mb 0.00 in0.0 mm 0.00 in0.0 mm 2.45 in62.2 mm
09:28 PM 66.9°F19.4°C 64.8°F18.2°C 93% 3.0 mph W4.8 kmh W -- 30.06 in1017.9 mb 0.00 in0.0 mm 0.00 in0.0 mm 2.45 in62.2 mm
09:33 PM 66.6°F19.2°C 64.8°F18.2°C 94% 3.0 mph WNW4.8 kmh WNW -- 30.06 in1017.9 mb 0.00 in0.0 mm 0.00 in0.0 mm 2.45 in62.2 mm
09:38 PM 66.4°F19.1°C 64.6°F18.1°C 94% 2.0 mph W3.2 kmh W -- 30.06 in1017.9 mb 0.00 in0.0 mm 0.00 in0.0 mm 2.45 in62.2 mm
09:43 PM 66.2°F19.0°C 64.4°F18.0°C 94% 3.0 mph WSW4.8 kmh WSW -- 30.06 in1017.9 mb 0.00 in0.0 mm 0.00 in0.0 mm 2.45 in62.2 mm
09:48 PM 66.0°F18.9°C 64.2°F17.9°C 94% 2.0 mph WNW3.2 kmh WNW -- 30.07 in1018.3 mb 0.00 in0.0 mm 0.00 in0.0 mm 2.45 in62.2 mm
09:53 PM 65.7°F18.7°C 63.9°F17.7°C 94% 2.0 mph W3.2 kmh W -- 30.06 in1017.9 mb 0.00 in0.0 mm 0.00 in0.0 mm 2.45 in62.2 mm
09:58 PM 65.5°F18.6°C 64.0°F17.8°C 95% 2.0 mph W3.2 kmh W -- 30.06 in1017.9 mb 0.00 in0.0 mm 0.00 in0.0 mm 2.45 in62.2 mm
10:03 PM 65.3°F18.5°C 63.8°F17.7°C 95% 2.0 mph W3.2 kmh W -- 30.07 in1018.3 mb 0.00 in0.0 mm 0.00 in0.0 mm 2.45 in62.2 mm
10:08 PM 64.9°F18.3°C 63.4°F17.4°C 95% 2.0 mph W3.2 kmh W -- 30.07 in1018.3 mb 0.00 in0.0 mm 0.00 in0.0 mm 2.45 in62.2 mm
10:13 PM 64.8°F18.2°C 63.3°F17.4°C 95% 1.0 mph W1.6 kmh W -- 30.07 in1018.3 mb 0.00 in0.0 mm 0.00 in0.0 mm 2.45 in62.2 mm
10:18 PM 64.6°F18.1°C 63.4°F17.4°C 96% 2.0 mph W3.2 kmh W -- 30.07 in1018.3 mb 0.00 in0.0 mm 0.00 in0.0 mm 2.45 in62.2 mm
10:23 PM 64.4°F18.0°C 63.2°F17.3°C 96% 2.0 mph W3.2 kmh W -- 30.07 in1018.3 mb 0.00 in0.0 mm 0.00 in0.0 mm 2.45 in62.2 mm
10:28 PM 64.0°F17.8°C 62.8°F17.1°C 96% 3.0 mph W4.8 kmh W -- 30.07 in1018.3 mb 0.00 in0.0 mm 0.00 in0.0 mm 2.45 in62.2 mm
10:33 PM 64.0°F17.8°C 63.1°F17.3°C 97% 2.0 mph WSW3.2 kmh WSW -- 30.07 in1018.3 mb 0.00 in0.0 mm 0.00 in0.0 mm 2.45 in62.2 mm
10:38 PM 63.9°F17.7°C 63.0°F17.2°C 97% 2.0 mph WSW3.2 kmh WSW -- 30.08 in1018.6 mb 0.00 in0.0 mm 0.00 in0.0 mm 2.45 in62.2 mm
10:43 PM 63.7°F17.6°C 62.8°F17.1°C 97% 4.0 mph W6.4 kmh W -- 30.08 in1018.6 mb 0.00 in0.0 mm 0.00 in0.0 mm 2.45 in62.2 mm
10:48 PM 63.5°F17.5°C 62.6°F17.0°C 97% 3.0 mph W4.8 kmh W -- 30.08 in1018.6 mb 0.00 in0.0 mm 0.00 in0.0 mm 2.45 in62.2 mm
10:53 PM 63.3°F17.4°C 62.7°F17.1°C 98% 3.0 mph W4.8 kmh W -- 30.08 in1018.6 mb 0.00 in0.0 mm 0.00 in0.0 mm 2.45 in62.2 mm
10:58 PM 63.1°F17.3°C 62.5°F16.9°C 98% 3.0 mph W4.8 kmh W -- 30.08 in1018.6 mb 0.00 in0.0 mm 0.00 in0.0 mm 2.45 in62.2 mm
11:03 PM 63.1°F17.3°C 62.5°F16.9°C 98% 3.0 mph W4.8 kmh W -- 30.09 in1019.0 mb 0.00 in0.0 mm 0.00 in0.0 mm 2.45 in62.2 mm
11:08 PM 63.0°F17.2°C 62.4°F16.9°C 98% 2.0 mph W3.2 kmh W -- 30.08 in1018.6 mb 0.00 in0.0 mm 0.00 in0.0 mm 2.45 in62.2 mm
11:13 PM 63.0°F17.2°C 62.4°F16.9°C 98% 3.0 mph WSW4.8 kmh WSW -- 30.09 in1019.0 mb 0.00 in0.0 mm 0.00 in0.0 mm 2.45 in62.2 mm
11:18 PM 62.8°F17.1°C 62.2°F16.8°C 98% 3.0 mph WSW4.8 kmh WSW -- 30.09 in1019.0 mb 0.00 in0.0 mm 0.00 in0.0 mm 2.45 in62.2 mm
11:23 PM 62.6°F17.0°C 62.3°F16.8°C 99% 2.0 mph WSW3.2 kmh WSW -- 30.09 in1019.0 mb 0.00 in0.0 mm 0.00 in0.0 mm 2.45 in62.2 mm
11:28 PM 62.4°F16.9°C 62.1°F16.7°C 99% Calm Calm -- 30.09 in1019.0 mb 0.00 in0.0 mm 0.00 in0.0 mm 2.45 in62.2 mm
11:33 PM 62.2°F16.8°C 61.9°F16.6°C 99% Calm Calm -- 30.10 in1019.3 mb 0.00 in0.0 mm 0.00 in0.0 mm 2.45 in62.2 mm
11:38 PM 62.1°F16.7°C 61.8°F16.6°C 99% 2.0 mph W3.2 kmh W -- 30.10 in1019.3 mb 0.00 in0.0 mm 0.00 in0.0 mm 2.45 in62.2 mm
11:48 PM 61.9°F16.6°C 61.6°F16.4°C 99% 2.0 mph WSW3.2 kmh WSW -- 30.10 in1019.3 mb 0.00 in0.0 mm 0.00 in0.0 mm 2.45 in62.2 mm
11:53 PM 61.7°F16.5°C 61.4°F16.3°C 99% Calm Calm -- 30.10 in1019.3 mb 0.00 in0.0 mm 0.00 in0.0 mm 2.45 in62.2 mm
11:58 PM 61.7°F16.5°C 61.4°F16.3°C 99% Calm Calm -- 30.10 in1019.3 mb 0.00 in0.0 mm 0.00 in0.0 mm 2.45 in62.2 mm